Time,TemperatureF,DewpointF,PressureIn,WindDirection,WindDirectionDegrees,WindSpeedMPH,WindSpeedGustMPH,Humidity,HourlyPrecipIn,Conditions,Clouds,dailyrainin,SoftwareType,DateUTC
2013-11-29 00:01:00,11.9,6.4,30.48,WNW,298,0.0,0.0,78,0.00,CLR,,0.00,WeatherDisplay:10.37,2013-11-29 06:01:00,
2013-11-29 00:06:00,11.6,6.3,30.48,WNW,298,0.0,0.0,79,0.00,CLR,,0.00,WeatherDisplay:10.37,2013-11-29 06:06:00,
2013-11-29 00:11:00,11.4,6.2,30.47,WNW,298,0.0,0.0,79,0.00,CLR,,0.00,WeatherDisplay:10.37,2013-11-29 06:11:00,
2013-11-29 00:16:00,11.2,6.0,30.47,WNW,298,0.0,0.0,79,0.00,CLR,,0.00,WeatherDisplay:10.37,2013-11-29 06:16:00,
2013-11-29 00:21:00,11.1,6.1,30.47,WNW,298,0.0,0.0,80,0.00,CLR,,0.00,WeatherDisplay:10.37,2013-11-29 06:21:00,
2013-11-29 00:26:00,10.9,5.9,30.47,WNW,298,0.0,0.0,80,0.00,CLR,,0.00,WeatherDisplay:10.37,2013-11-29 06:26:00,
2013-11-29 00:31:00,10.7,5.7,30.47,WNW,298,0.0,0.0,80,0.00,CLR,,0.00,WeatherDisplay:10.37,2013-11-29 06:31:00,
2013-11-29 00:36:00,10.5,5.5,30.47,WNW,298,0.0,0.0,80,0.00,CLR,,0.00,WeatherDisplay:10.37,2013-11-29 06:36:00,
2013-11-29 00:41:00,10.4,5.7,30.47,WNW,298,0.0,0.0,81,0.00,CLR,,0.00,WeatherDisplay:10.37,2013-11-29 06:41:00,
2013-11-29 00:46:00,10.4,5.7,30.47,WNW,298,0.0,0.0,81,0.00,CLR,,0.00,WeatherDisplay:10.37,2013-11-29 06:46:00,
2013-11-29 00:51:00,10.4,5.7,30.47,WNW,298,0.0,0.0,81,0.00,CLR,,0.00,WeatherDisplay:10.37,2013-11-29 06:51:00,
2013-11-29 00:56:00,10.2,5.5,30.47,WNW,298,0.0,0.0,81,0.00,CLR,,0.00,WeatherDisplay:10.37,2013-11-29 06:56:00,
2013-11-29 01:01:00,10.0,5.3,30.47,WNW,298,0.0,0.0,81,0.00,CLR,,0.00,WeatherDisplay:10.37,2013-11-29 07:01:00,
2013-11-29 01:06:00,10.0,5.6,30.47,WNW,298,0.0,0.0,82,0.00,CLR,,0.00,WeatherDisplay:10.37,2013-11-29 07:06:00,
2013-11-29 01:11:00,10.0,5.6,30.47,WNW,298,0.0,0.0,82,0.00,CLR,,0.00,WeatherDisplay:10.37,2013-11-29 07:11:00,
2013-11-29 01:16:00,10.2,5.8,30.47,WNW,298,0.0,0.0,82,0.00,CLR,,0.00,WeatherDisplay:10.37,2013-11-29 07:16:00,
2013-11-29 01:21:00,10.2,5.8,30.47,WNW,298,0.0,0.0,82,0.00,CLR,,0.00,WeatherDisplay:10.37,2013-11-29 07:21:00,
2013-11-29 01:26:00,10.2,5.8,30.47,WNW,298,0.0,0.0,82,0.00,CLR,,0.00,WeatherDisplay:10.37,2013-11-29 07:26:00,
2013-11-29 01:31:00,10.0,5.9,30.47,WNW,298,0.0,0.0,83,0.00,CLR,,0.00,WeatherDisplay:10.37,2013-11-29 07:31:00,
2013-11-29 01:36:00,10.0,5.9,30.47,WNW,298,0.0,0.0,83,0.00,CLR,,0.00,WeatherDisplay:10.37,2013-11-29 07:36:00,
2013-11-29 01:41:00,10.0,5.9,30.47,WNW,298,0.0,0.0,83,0.00,CLR,,0.00,WeatherDisplay:10.37,2013-11-29 07:41:00,
2013-11-29 01:46:00,10.0,5.9,30.48,WNW,298,0.0,0.0,83,0.00,CLR,,0.00,WeatherDisplay:10.37,2013-11-29 07:46:00,
2013-11-29 01:51:00,10.0,5.9,30.48,WNW,298,0.0,0.0,83,0.00,CLR,,0.00,WeatherDisplay:10.37,2013-11-29 07:51:00,
2013-11-29 01:56:00,10.2,6.1,30.48,WNW,298,0.0,0.0,83,0.00,CLR,,0.00,WeatherDisplay:10.37,2013-11-29 07:56:00,
2013-11-29 02:01:00,10.4,6.3,30.47,WNW,298,0.0,0.0,83,0.00,CLR,,0.00,WeatherDisplay:10.37,2013-11-29 08:01:00,
2013-11-29 02:06:00,10.4,6.3,30.47,WNW,298,0.0,0.0,83,0.00,CLR,,0.00,WeatherDisplay:10.37,2013-11-29 08:06:00,
2013-11-29 02:11:00,10.4,6.3,30.47,WNW,298,0.0,0.0,83,0.00,CLR,,0.00,WeatherDisplay:10.37,2013-11-29 08:11:00,
2013-11-29 02:16:00,10.2,6.1,30.47,WNW,298,0.0,0.0,83,0.00,CLR,,0.00,WeatherDisplay:10.37,2013-11-29 08:16:00,
2013-11-29 02:21:00,10.2,6.1,30.47,WNW,298,0.0,0.0,83,0.00,CLR,,0.00,WeatherDisplay:10.37,2013-11-29 08:21:00,
2013-11-29 02:26:00,9.9,5.8,30.47,WNW,298,0.0,0.0,83,0.00,CLR,,0.00,WeatherDisplay:10.37,2013-11-29 08:26:00,
2013-11-29 02:31:00,9.5,5.4,30.47,WNW,298,0.0,0.0,83,0.00,CLR,,0.00,WeatherDisplay:10.37,2013-11-29 08:31:00,
2013-11-29 02:36:00,9.7,5.6,30.47,WNW,298,0.0,0.0,83,0.00,CLR,,0.00,WeatherDisplay:10.37,2013-11-29 08:36:00,
2013-11-29 02:41:00,10.0,5.9,30.47,WNW,298,0.0,0.0,83,0.00,CLR,,0.00,WeatherDisplay:10.37,2013-11-29 08:41:00,
2013-11-29 02:46:00,10.2,6.1,30.47,WNW,298,0.0,0.0,83,0.00,CLR,,0.00,WeatherDisplay:10.37,2013-11-29 08:46:00,
2013-11-29 02:51:00,10.2,6.1,30.47,WNW,298,0.0,0.0,83,0.00,CLR,,0.00,WeatherDisplay:10.37,2013-11-29 08:51:00,
2013-11-29 02:56:00,10.2,6.1,30.47,WNW,298,0.0,0.0,83,0.00,CLR,,0.00,WeatherDisplay:10.37,2013-11-29 08:56:00,
2013-11-29 03:01:00,10.0,5.9,30.47,WNW,298,0.0,0.0,83,0.00,CLR,,0.00,WeatherDisplay:10.37,2013-11-29 09:01:00,
2013-11-29 03:06:00,9.9,5.5,30.47,WNW,298,0.0,0.0,82,0.00,CLR,,0.00,WeatherDisplay:10.37,2013-11-29 09:06:00,
2013-11-29 03:11:00,9.7,5.3,30.47,WNW,298,0.0,0.0,82,0.00,CLR,,0.00,WeatherDisplay:10.37,2013-11-29 09:11:00,
2013-11-29 03:16:00,9.5,5.1,30.47,WNW,298,0.0,0.0,82,0.00,CLR,,0.00,WeatherDisplay:10.37,2013-11-29 09:16:00,
2013-11-29 03:21:00,9.3,4.9,30.47,WNW,298,0.0,0.0,82,0.00,CLR,,0.00,WeatherDisplay:10.37,2013-11-29 09:21:00,
2013-11-29 03:26:00,9.3,4.9,30.47,WNW,298,0.0,0.0,82,0.00,CLR,,0.00,WeatherDisplay:10.37,2013-11-29 09:26:00,
2013-11-29 03:31:00,9.3,4.9,30.46,WNW,298,0.0,0.0,82,0.00,CLR,,0.00,WeatherDisplay:10.37,2013-11-29 09:31:00,
2013-11-29 03:36:00,9.5,5.1,30.46,WNW,298,0.0,0.0,82,0.00,CLR,,0.00,WeatherDisplay:10.37,2013-11-29 09:36:00,
2013-11-29 03:41:00,9.9,5.5,30.46,WNW,298,0.0,0.0,82,0.00,CLR,,0.00,WeatherDisplay:10.37,2013-11-29 09:41:00,
2013-11-29 03:46:00,9.9,5.5,30.46,WNW,298,0.0,0.0,82,0.00,CLR,,0.00,WeatherDisplay:10.37,2013-11-29 09:46:00,
2013-11-29 03:51:00,9.9,5.8,30.46,WNW,298,0.0,0.0,83,0.00,CLR,,0.00,WeatherDisplay:10.37,2013-11-29 09:51:00,
2013-11-29 03:56:00,10.2,6.1,30.46,WNW,298,0.0,0.0,83,0.00,CLR,,0.00,WeatherDisplay:10.37,2013-11-29 09:56:00,
2013-11-29 04:01:00,10.7,6.6,30.46,WNW,298,0.0,0.0,83,0.00,CLR,,0.00,WeatherDisplay:10.37,2013-11-29 10:01:00,
2013-11-29 04:06:00,11.1,6.9,30.46,WNW,298,0.0,0.0,83,0.00,CLR,,0.00,WeatherDisplay:10.37,2013-11-29 10:06:00,
2013-11-29 04:11:00,11.2,7.0,30.46,WNW,298,0.0,0.0,83,0.00,CLR,,0.00,WeatherDisplay:10.37,2013-11-29 10:11:00,
2013-11-29 04:16:00,11.4,7.5,30.46,WNW,298,0.0,0.0,84,0.00,CLR,,0.00,WeatherDisplay:10.37,2013-11-29 10:16:00,
2013-11-29 04:21:00,11.6,7.7,30.46,WNW,298,0.0,0.0,84,0.00,CLR,,0.00,WeatherDisplay:10.37,2013-11-29 10:21:00,
2013-11-29 04:26:00,11.7,7.8,30.46,WNW,298,0.0,0.0,84,0.00,CLR,,0.00,WeatherDisplay:10.37,2013-11-29 10:26:00,
2013-11-29 04:31:00,11.9,8.0,30.47,WNW,298,0.0,0.0,84,0.00,,,0.00,WeatherDisplay:10.37,2013-11-29 10:31:00,
2013-11-29 04:36:00,12.4,8.5,30.47,WNW,298,1.1,1.1,84,0.00,,,0.00,WeatherDisplay:10.37,2013-11-29 10:36:00,
2013-11-29 04:41:00,12.9,9.0,30.47,WNW,298,3.0,3.0,84,0.00,,,0.00,WeatherDisplay:10.37,2013-11-29 10:41:00,
2013-11-29 04:46:00,13.6,9.7,30.46,WNW,298,3.5,3.5,84,0.00,CLR,,0.00,WeatherDisplay:10.37,2013-11-29 10:46:00,
2013-11-29 04:51:00,14.0,9.8,30.46,WNW,298,0.0,0.0,83,0.00,CLR,,0.00,WeatherDisplay:10.37,2013-11-29 10:51:00,
2013-11-29 04:56:00,14.0,9.8,30.46,WNW,298,0.0,0.2,83,0.00,CLR,,0.00,WeatherDisplay:10.37,2013-11-29 10:56:00,
2013-11-29 05:01:00,13.8,9.3,30.47,WNW,298,0.0,0.0,82,0.00,,,0.00,WeatherDisplay:10.37,2013-11-29 11:01:00,
2013-11-29 05:06:00,13.8,9.3,30.47,WNW,298,0.0,0.0,82,0.00,,,0.00,WeatherDisplay:10.37,2013-11-29 11:06:00,
2013-11-29 05:11:00,13.6,9.1,30.47,WNW,298,0.0,0.0,82,0.00,,,0.00,WeatherDisplay:10.37,2013-11-29 11:11:00,
2013-11-29 05:16:00,13.6,9.1,30.47,WNW,298,1.0,0.0,82,0.00,,,0.00,WeatherDisplay:10.37,2013-11-29 11:16:00,
2013-11-29 05:21:00,13.8,9.3,30.48,WNW,298,1.1,0.0,82,0.00,,,0.00,WeatherDisplay:10.37,2013-11-29 11:21:00,
2013-11-29 05:26:00,13.8,9.3,30.48,WNW,298,0.0,0.5,82,0.00,,,0.00,WeatherDisplay:10.37,2013-11-29 11:26:00,
2013-11-29 05:31:00,14.1,9.3,30.47,WNW,298,2.3,2.3,81,0.00,,,0.00,WeatherDisplay:10.37,2013-11-29 11:31:00,
2013-11-29 05:36:00,14.3,9.5,30.47,SSE,164,6.0,6.0,81,0.00,,,0.00,WeatherDisplay:10.37,2013-11-29 11:36:00,
2013-11-29 05:41:00,14.1,9.1,30.47,South,175,5.8,5.8,80,0.00,,,0.00,WeatherDisplay:10.37,2013-11-29 11:41:00,
2013-11-29 05:46:00,14.1,9.1,30.46,South,175,3.5,3.5,80,0.00,CLR,,0.00,WeatherDisplay:10.37,2013-11-29 11:46:00,
2013-11-29 05:51:00,14.0,9.0,30.46,South,175,3.5,3.5,80,0.00,CLR,,0.00,WeatherDisplay:10.37,2013-11-29 11:51:00,
2013-11-29 05:56:00,13.8,8.8,30.46,South,175,2.3,0.0,80,0.00,CLR,,0.00,WeatherDisplay:10.37,2013-11-29 11:56:00,
2013-11-29 06:01:00,13.6,8.6,30.46,South,175,1.1,1.1,80,0.00,CLR,,0.00,WeatherDisplay:10.37,2013-11-29 12:01:00,
2013-11-29 06:06:00,13.6,8.6,30.46,South,175,0.0,0.0,80,0.00,CLR,,0.00,WeatherDisplay:10.37,2013-11-29 12:06:00,
2013-11-29 06:11:00,13.6,8.6,30.46,South,175,2.3,2.3,80,0.00,CLR,,0.00,WeatherDisplay:10.37,2013-11-29 12:11:00,
2013-11-29 06:16:00,13.6,8.6,30.46,South,175,1.0,1.0,80,0.00,CLR,,0.00,WeatherDisplay:10.37,2013-11-29 12:16:00,
2013-11-29 06:21:00,13.8,8.8,30.46,South,175,0.0,0.0,80,0.00,CLR,,0.00,WeatherDisplay:10.37,2013-11-29 12:21:00,
2013-11-29 06:26:00,13.8,8.8,30.46,South,175,0.0,0.0,80,0.00,CLR,,0.00,WeatherDisplay:10.37,2013-11-29 12:26:00,
2013-11-29 06:31:00,13.6,8.6,30.46,South,175,0.0,0.0,80,0.00,CLR,,0.00,WeatherDisplay:10.37,2013-11-29 12:31:00,
2013-11-29 06:36:00,13.6,8.6,30.46,South,175,0.0,0.0,80,0.00,CLR,,0.00,WeatherDisplay:10.37,2013-11-29 12:36:00,
2013-11-29 06:41:00,13.6,8.6,30.46,South,175,1.1,1.1,80,0.00,CLR,,0.00,WeatherDisplay:10.37,2013-11-29 12:41:00,
2013-11-29 06:46:00,13.6,8.6,30.46,South,175,0.0,0.0,80,0.00,CLR,,0.00,WeatherDisplay:10.37,2013-11-29 12:46:00,
2013-11-29 06:51:00,13.8,8.8,30.46,South,175,2.3,2.3,80,0.00,CLR,,0.00,WeatherDisplay:10.37,2013-11-29 12:51:00,
2013-11-29 06:56:00,13.8,8.8,30.46,South,175,2.3,2.3,80,0.00,CLR,,0.00,WeatherDisplay:10.37,2013-11-29 12:56:00,
2013-11-29 07:01:00,13.8,8.8,30.46,South,175,1.1,1.1,80,0.00,CLR,,0.00,WeatherDisplay:10.37,2013-11-29 13:01:00,
2013-11-29 07:06:00,14.0,9.0,30.46,South,175,2.3,2.3,80,0.00,CLR,,0.00,WeatherDisplay:10.37,2013-11-29 13:06:00,
2013-11-29 07:11:00,14.0,9.0,30.46,South,175,3.5,3.5,80,0.00,CLR,,0.00,WeatherDisplay:10.37,2013-11-29 13:11:00,
2013-11-29 07:16:00,14.1,9.1,30.46,South,175,3.5,3.5,80,0.00,CLR,,0.00,WeatherDisplay:10.37,2013-11-29 13:16:00,
2013-11-29 07:21:00,14.3,9.3,30.46,South,175,3.5,3.5,80,0.00,CLR,,0.00,WeatherDisplay:10.37,2013-11-29 13:21:00,
2013-11-29 07:26:00,14.3,9.3,30.46,South,175,1.1,1.1,80,0.00,CLR,,0.00,WeatherDisplay:10.37,2013-11-29 13:26:00,
2013-11-29 07:31:00,14.3,9.3,30.46,South,175,4.0,4.0,80,0.00,CLR,,0.00,WeatherDisplay:10.37,2013-11-29 13:31:00,
2013-11-29 07:36:00,14.4,9.4,30.46,South,175,3.5,3.5,80,0.00,CLR,,0.00,WeatherDisplay:10.37,2013-11-29 13:36:00,
2013-11-29 07:41:00,14.4,9.4,30.46,South,175,0.0,0.0,80,0.00,CLR,,0.00,WeatherDisplay:10.37,2013-11-29 13:41:00,
2013-11-29 07:46:00,14.6,9.6,30.46,South,175,2.3,2.3,80,0.00,CLR,,0.00,WeatherDisplay:10.37,2013-11-29 13:46:00,
2013-11-29 07:51:00,14.6,9.6,30.46,South,175,2.3,2.3,80,0.00,CLR,,0.00,WeatherDisplay:10.37,2013-11-29 13:51:00,
2013-11-29 07:56:00,14.8,9.7,30.46,South,175,1.1,1.1,80,0.00,CLR,,0.00,WeatherDisplay:10.37,2013-11-29 13:56:00,
2013-11-29 08:02:00,14.9,9.8,30.46,South,175,2.0,2.0,80,0.00,CLR,,0.00,WeatherDisplay:10.37,2013-11-29 14:02:00,
2013-11-29 08:07:00,15.1,10.0,30.46,South,175,3.5,3.5,80,0.00,CLR,,0.00,WeatherDisplay:10.37,2013-11-29 14:07:00,
2013-11-29 08:12:00,15.2,10.1,30.46,South,175,3.5,3.5,80,0.00,CLR,,0.00,WeatherDisplay:10.37,2013-11-29 14:12:00,
2013-11-29 08:17:00,15.6,10.5,30.46,South,175,4.6,4.6,80,0.00,CLR,,0.00,WeatherDisplay:10.37,2013-11-29 14:17:00,
2013-11-29 08:22:00,15.7,10.6,30.46,South,175,3.5,3.5,80,0.00,CLR,,0.00,WeatherDisplay:10.37,2013-11-29 14:22:00,
2013-11-29 08:27:00,15.9,10.8,30.46,South,175,5.0,5.0,80,0.00,CLR,,0.00,WeatherDisplay:10.37,2013-11-29 14:27:00,
2013-11-29 08:32:00,16.2,11.1,30.46,South,175,3.5,3.5,80,0.00,CLR,,0.00,WeatherDisplay:10.37,2013-11-29 14:32:00,
2013-11-29 08:37:00,16.5,11.4,30.46,South,175,3.5,3.5,80,0.00,CLR,,0.00,WeatherDisplay:10.37,2013-11-29 14:37:00,
2013-11-29 08:42:00,16.7,11.3,30.46,South,175,4.6,4.6,79,0.00,CLR,,0.00,WeatherDisplay:10.37,2013-11-29 14:42:00,
2013-11-29 08:47:00,16.9,11.5,30.45,SE,137,3.5,3.5,79,0.00,CLR,,0.00,WeatherDisplay:10.37,2013-11-29 14:47:00,
2013-11-29 08:52:00,17.0,11.6,30.45,SE,138,3.5,3.5,79,0.00,CLR,,0.00,WeatherDisplay:10.37,2013-11-29 14:52:00,
2013-11-29 08:57:00,17.3,11.6,30.45,SE,138,4.6,4.6,78,0.00,CLR,,0.00,WeatherDisplay:10.37,2013-11-29 14:57:00,
2013-11-29 09:02:00,17.5,11.8,30.45,SE,138,4.6,4.6,78,0.00,CLR,,0.00,WeatherDisplay:10.37,2013-11-29 15:02:00,
2013-11-29 09:07:00,17.8,12.1,30.45,SE,138,3.5,3.5,78,0.00,CLR,,0.00,WeatherDisplay:10.37,2013-11-29 15:07:00,
2013-11-29 09:12:00,18.0,12.3,30.45,SE,138,2.3,2.3,78,0.00,CLR,,0.00,WeatherDisplay:10.37,2013-11-29 15:12:00,
2013-11-29 09:17:00,18.1,12.4,30.45,SSE,153,3.5,3.5,78,0.00,CLR,,0.00,WeatherDisplay:10.37,2013-11-29 15:17:00,
2013-11-29 09:22:00,18.4,12.7,30.45,SSE,153,2.3,2.3,78,0.00,CLR,,0.00,WeatherDisplay:10.37,2013-11-29 15:22:00,
2013-11-29 09:27:00,18.6,12.9,30.45,SSE,165,3.5,3.5,78,0.00,CLR,,0.00,WeatherDisplay:10.37,2013-11-29 15:27:00,
2013-11-29 09:32:00,18.9,13.2,30.45,SE,140,9.2,9.2,78,0.00,CLR,,0.00,WeatherDisplay:10.37,2013-11-29 15:32:00,
2013-11-29 09:37:00,19.2,13.2,30.45,SE,145,4.6,4.6,77,0.00,CLR,,0.00,WeatherDisplay:10.37,2013-11-29 15:37:00,
2013-11-29 09:42:00,19.5,13.5,30.45,SSE,160,5.0,5.0,77,0.00,CLR,,0.00,WeatherDisplay:10.37,2013-11-29 15:42:00,
2013-11-29 09:47:00,19.9,13.9,30.45,SSE,166,6.9,6.9,77,0.00,CLR,,0.00,WeatherDisplay:10.37,2013-11-29 15:47:00,
2013-11-29 09:52:00,20.2,13.8,30.45,SSE,160,10.4,10.4,76,0.00,CLR,,0.00,WeatherDisplay:10.37,2013-11-29 15:52:00,
2013-11-29 09:57:00,20.5,14.1,30.45,SE,140,9.2,9.2,76,0.00,CLR,,0.00,WeatherDisplay:10.37,2013-11-29 15:57:00,
2013-11-29 10:02:00,21.0,14.3,30.45,SSE,167,11.5,11.5,75,0.00,CLR,,0.00,WeatherDisplay:10.37,2013-11-29 16:02:00,
2013-11-29 10:07:00,21.4,14.7,30.45,SE,139,9.2,9.2,75,0.00,CLR,,0.00,WeatherDisplay:10.37,2013-11-29 16:07:00,
2013-11-29 10:12:00,21.8,14.8,30.45,SSE,149,9.2,9.2,74,0.00,CLR,,0.00,WeatherDisplay:10.37,2013-11-29 16:12:00,
2013-11-29 10:17:00,22.1,14.8,30.44,SSE,164,3.5,3.5,73,0.00,CLR,,0.00,WeatherDisplay:10.37,2013-11-29 16:17:00,
2013-11-29 10:22:00,22.4,15.1,30.44,South,190,5.8,5.8,73,0.00,CLR,,0.00,WeatherDisplay:10.37,2013-11-29 16:22:00,
2013-11-29 10:27:00,22.5,14.8,30.44,SSE,161,10.4,10.4,72,0.00,CLR,,0.00,WeatherDisplay:10.37,2013-11-29 16:27:00,
2013-11-29 10:32:00,22.7,14.7,30.44,SSE,160,12.7,12.7,71,0.00,CLR,,0.00,WeatherDisplay:10.37,2013-11-29 16:32:00,
2013-11-29 10:37:00,23.0,15.0,30.44,South,171,5.8,5.8,71,0.00,CLR,,0.00,WeatherDisplay:10.37,2013-11-29 16:37:00,
2013-11-29 10:42:00,23.6,15.2,30.44,South,179,11.5,11.5,70,0.00,CLR,,0.00,WeatherDisplay:10.37,2013-11-29 16:42:00,
2013-11-29 10:47:00,23.9,15.2,30.43,SE,145,13.8,13.8,69,0.00,CLR,,0.00,WeatherDisplay:10.37,2013-11-29 16:47:00,
2013-11-29 10:52:00,24.4,15.3,30.43,SSE,166,12.7,12.7,68,0.00,CLR,,0.00,WeatherDisplay:10.37,2013-11-29 16:52:00,
2013-11-29 10:57:00,25.0,15.6,30.43,South,169,14.0,14.0,67,0.00,CLR,,0.00,WeatherDisplay:10.37,2013-11-29 16:57:00,
2013-11-29 11:02:00,25.4,14.9,30.42,SSE,168,13.8,13.8,64,0.00,CLR,,0.00,WeatherDisplay:10.37,2013-11-29 17:02:00,
2013-11-29 11:07:00,25.7,14.8,30.42,South,183,12.7,12.7,63,0.00,CLR,,0.00,WeatherDisplay:10.37,2013-11-29 17:07:00,
2013-11-29 11:12:00,26.1,14.8,30.42,South,178,16.1,16.1,62,0.00,CLR,,0.00,WeatherDisplay:10.37,2013-11-29 17:12:00,
2013-11-29 11:17:00,26.4,14.4,30.42,South,176,12.7,12.7,60,0.00,CLR,,0.00,WeatherDisplay:10.37,2013-11-29 17:17:00,
2013-11-29 11:22:00,26.6,14.2,30.42,SSE,168,15.0,15.0,59,0.00,CLR,,0.00,WeatherDisplay:10.37,2013-11-29 17:22:00,
2013-11-29 11:27:00,26.7,13.9,30.42,SW,221,13.8,13.8,58,0.00,CLR,,0.00,WeatherDisplay:10.37,2013-11-29 17:27:00,
2013-11-29 11:32:00,27.0,14.2,30.41,SW,215,10.4,10.4,58,0.00,CLR,,0.00,WeatherDisplay:10.37,2013-11-29 17:32:00,
2013-11-29 11:37:00,27.5,13.8,30.41,SSW,213,13.0,13.0,56,0.00,CLR,,0.00,WeatherDisplay:10.37,2013-11-29 17:37:00,
2013-11-29 11:42:00,27.8,13.7,30.41,SW,217,13.8,13.8,55,0.00,CLR,,0.00,WeatherDisplay:10.37,2013-11-29 17:42:00,
2013-11-29 11:47:00,28.2,14.1,30.40,SSW,202,12.0,12.0,55,0.00,CLR,,0.00,WeatherDisplay:10.37,2013-11-29 17:47:00,
2013-11-29 11:52:00,28.7,14.1,30.40,South,178,16.1,16.1,54,0.00,CLR,,0.00,WeatherDisplay:10.37,2013-11-29 17:52:00,
2013-11-29 11:57:00,29.3,14.3,30.40,SSW,204,17.0,17.0,53,0.00,CLR,,0.00,WeatherDisplay:10.37,2013-11-29 17:57:00,
2013-11-29 12:02:00,29.3,14.3,30.38,SSW,207,14.0,14.0,53,0.00,CLR,,0.00,WeatherDisplay:10.37,2013-11-29 18:02:00,
2013-11-29 12:07:00,29.5,14.5,30.38,SSE,167,16.1,16.1,53,0.00,CLR,,0.00,WeatherDisplay:10.37,2013-11-29 18:07:00,
2013-11-29 12:12:00,30.0,14.9,30.38,SSW,212,13.8,13.8,53,0.00,CLR,,0.00,WeatherDisplay:10.37,2013-11-29 18:12:00,
2013-11-29 12:17:00,29.8,14.7,30.37,SSW,213,15.0,15.0,53,0.00,CLR,,0.00,WeatherDisplay:10.37,2013-11-29 18:17:00,
2013-11-29 12:22:00,30.1,15.0,30.37,SSW,209,11.5,11.5,53,0.00,CLR,,0.00,WeatherDisplay:10.37,2013-11-29 18:22:00,
2013-11-29 12:27:00,30.0,14.9,30.37,South,184,15.0,15.0,53,0.00,CLR,,0.00,WeatherDisplay:10.37,2013-11-29 18:27:00,
2013-11-29 12:32:00,30.3,15.2,30.36,SSE,160,12.7,12.7,53,0.00,CLR,,0.00,WeatherDisplay:10.37,2013-11-29 18:32:00,
2013-11-29 12:37:00,30.3,14.8,30.36,South,189,15.0,15.0,52,0.00,CLR,,0.00,WeatherDisplay:10.37,2013-11-29 18:37:00,
2013-11-29 12:42:00,30.3,14.8,30.36,SSE,156,12.7,12.7,52,0.00,CLR,,0.00,WeatherDisplay:10.37,2013-11-29 18:42:00,
2013-11-29 12:47:00,30.4,14.9,30.36,South,171,11.5,11.5,52,0.00,CLR,,0.00,WeatherDisplay:10.37,2013-11-29 18:47:00,
2013-11-29 12:52:00,30.1,15.0,30.36,South,178,13.8,13.8,53,0.00,CLR,,0.00,WeatherDisplay:10.37,2013-11-29 18:52:00,
2013-11-29 12:57:00,30.1,15.4,30.36,SSE,157,16.1,16.1,54,0.00,CLR,,0.00,WeatherDisplay:10.37,2013-11-29 18:57:00,
2013-11-29 13:02:00,30.4,15.3,30.35,SW,232,13.0,13.0,53,0.00,CLR,,0.00,WeatherDisplay:10.37,2013-11-29 19:02:00,
2013-11-29 13:07:00,30.9,15.8,30.35,SSW,202,11.0,11.0,53,0.00,CLR,,0.00,WeatherDisplay:10.37,2013-11-29 19:07:00,
2013-11-29 13:12:00,30.4,15.3,30.35,SSE,158,9.0,9.0,53,0.00,CLR,,0.00,WeatherDisplay:10.37,2013-11-29 19:12:00,
2013-11-29 13:17:00,30.4,15.3,30.34,South,185,11.5,11.5,53,0.00,CLR,,0.00,WeatherDisplay:10.37,2013-11-29 19:17:00,
2013-11-29 13:22:00,30.6,15.9,30.34,SSW,208,15.0,15.0,54,0.00,CLR,,0.00,WeatherDisplay:10.37,2013-11-29 19:22:00,
2013-11-29 13:27:00,30.7,16.0,30.34,South,169,10.4,10.4,54,0.00,CLR,,0.00,WeatherDisplay:10.37,2013-11-29 19:27:00,
2013-11-29 13:32:00,30.9,16.2,30.32,South,180,15.0,15.0,54,0.00,CLR,,0.00,WeatherDisplay:10.37,2013-11-29 19:32:00,
2013-11-29 13:37:00,31.0,15.8,30.32,SSE,157,10.4,10.4,53,0.00,CLR,,0.00,WeatherDisplay:10.37,2013-11-29 19:37:00,
2013-11-29 13:42:00,31.2,16.0,30.32,SSE,159,17.3,17.3,53,0.00,CLR,,0.00,WeatherDisplay:10.37,2013-11-29 19:42:00,
2013-11-29 13:47:00,31.6,16.4,30.31,South,190,15.0,15.0,53,0.00,CLR,,0.00,WeatherDisplay:10.37,2013-11-29 19:47:00,
2013-11-29 13:52:00,31.9,16.2,30.31,SE,146,12.7,12.7,52,0.00,CLR,,0.00,WeatherDisplay:10.37,2013-11-29 19:52:00,
2013-11-29 13:57:00,31.9,15.8,30.31,South,188,16.1,16.1,51,0.00,CLR,,0.00,WeatherDisplay:10.37,2013-11-29 19:57:00,
2013-11-29 14:02:00,32.1,16.0,30.31,South,184,12.7,12.7,51,0.00,CLR,,0.00,WeatherDisplay:10.37,2013-11-29 20:02:00,
2013-11-29 14:07:00,32.2,16.1,30.31,SSE,167,17.3,17.3,51,0.00,CLR,,0.00,WeatherDisplay:10.37,2013-11-29 20:07:00,
2013-11-29 14:12:00,32.2,16.1,30.31,SSW,204,16.1,16.1,51,0.00,CLR,,0.00,WeatherDisplay:10.37,2013-11-29 20:12:00,
2013-11-29 14:17:00,32.2,16.1,30.29,South,177,19.6,19.6,51,0.00,CLR,,0.00,WeatherDisplay:10.37,2013-11-29 20:17:00,
2013-11-29 14:22:00,32.1,16.0,30.29,South,171,17.3,17.3,51,0.00,CLR,,0.00,WeatherDisplay:10.37,2013-11-29 20:22:00,
2013-11-29 14:27:00,32.1,16.0,30.29,SSW,200,16.1,16.1,51,0.00,CLR,,0.00,WeatherDisplay:10.37,2013-11-29 20:27:00,
2013-11-29 14:32:00,31.9,16.2,30.29,South,178,19.6,19.6,52,0.00,CLR,,0.00,WeatherDisplay:10.37,2013-11-29 20:32:00,
2013-11-29 14:37:00,31.8,16.2,30.29,SSW,213,17.3,17.3,52,0.00,CLR,,0.00,WeatherDisplay:10.37,2013-11-29 20:37:00,
2013-11-29 14:42:00,31.8,16.2,30.29,South,184,16.1,16.1,52,0.00,CLR,,0.00,WeatherDisplay:10.37,2013-11-29 20:42:00,
2013-11-29 14:47:00,31.6,16.0,30.28,SSE,163,17.3,17.3,52,0.00,CLR,,0.00,WeatherDisplay:10.37,2013-11-29 20:47:00,
2013-11-29 14:52:00,31.6,16.0,30.28,South,177,13.8,13.8,52,0.00,CLR,,0.00,WeatherDisplay:10.37,2013-11-29 20:52:00,
2013-11-29 14:57:00,31.3,16.1,30.28,SSE,158,17.3,17.3,53,0.00,CLR,,0.00,WeatherDisplay:10.37,2013-11-29 20:57:00,
2013-11-29 15:02:00,31.3,16.6,30.27,SE,146,19.6,19.6,54,0.00,CLR,,0.00,WeatherDisplay:10.37,2013-11-29 21:02:00,
2013-11-29 15:07:00,31.2,16.5,30.27,SSE,166,17.3,17.3,54,0.00,CLR,,0.00,WeatherDisplay:10.37,2013-11-29 21:07:00,
2013-11-29 15:12:00,31.2,16.5,30.27,South,171,16.1,16.1,54,0.00,CLR,,0.00,WeatherDisplay:10.37,2013-11-29 21:12:00,
2013-11-29 15:17:00,31.2,16.5,30.26,South,176,11.5,11.5,54,0.00,CLR,,0.00,WeatherDisplay:10.37,2013-11-29 21:17:00,
2013-11-29 15:22:00,31.0,16.7,30.26,SSE,168,21.9,21.9,55,0.00,CLR,,0.00,WeatherDisplay:10.37,2013-11-29 21:22:00,
2013-11-29 15:27:00,31.0,16.7,30.26,SSE,161,19.6,19.6,55,0.00,CLR,,0.00,WeatherDisplay:10.37,2013-11-29 21:27:00,
2013-11-29 15:32:00,31.0,16.7,30.26,South,174,19.6,19.6,55,0.00,CLR,,0.00,WeatherDisplay:10.37,2013-11-29 21:32:00,
2013-11-29 15:37:00,31.0,16.7,30.26,South,186,19.6,19.6,55,0.00,CLR,,0.00,WeatherDisplay:10.37,2013-11-29 21:37:00,
2013-11-29 15:42:00,31.0,17.1,30.26,South,169,15.0,15.0,56,0.00,CLR,,0.00,WeatherDisplay:10.37,2013-11-29 21:42:00,
2013-11-29 15:47:00,31.0,17.1,30.25,South,190,19.6,19.6,56,0.00,CLR,,0.00,WeatherDisplay:10.37,2013-11-29 21:47:00,
2013-11-29 15:52:00,31.0,16.7,30.25,SSE,161,19.6,19.6,55,0.00,CLR,,0.00,WeatherDisplay:10.37,2013-11-29 21:52:00,
2013-11-29 15:57:00,31.0,16.7,30.25,South,175,19.6,19.6,55,0.00,CLR,,0.00,WeatherDisplay:10.37,2013-11-29 21:57:00,
2013-11-29 16:02:00,31.0,16.7,30.24,South,182,18.4,18.4,55,0.00,CLR,,0.00,WeatherDisplay:10.37,2013-11-29 22:02:00,
2013-11-29 16:07:00,31.0,16.7,30.24,SSE,157,23.0,23.0,55,0.00,CLR,,0.00,WeatherDisplay:10.37,2013-11-29 22:07:00,
2013-11-29 16:12:00,30.9,17.0,30.24,SSE,162,20.7,20.7,56,0.00,CLR,,0.00,WeatherDisplay:10.37,2013-11-29 22:12:00,
2013-11-29 16:17:00,30.9,17.0,30.24,South,176,18.4,18.4,56,0.00,CLR,,0.00,WeatherDisplay:10.37,2013-11-29 22:17:00,
2013-11-29 16:22:00,30.7,16.8,30.24,South,184,18.4,18.4,56,0.00,CLR,,0.00,WeatherDisplay:10.37,2013-11-29 22:22:00,
2013-11-29 16:27:00,30.6,17.2,30.24,South,171,13.0,13.0,57,0.00,CLR,,0.00,WeatherDisplay:10.37,2013-11-29 22:27:00,
2013-11-29 16:32:00,30.3,16.9,30.23,South,184,12.7,12.7,57,0.00,SCT,,0.00,WeatherDisplay:10.37,2013-11-29 22:32:00,
2013-11-29 16:37:00,30.1,16.7,30.23,SSE,162,16.1,16.1,57,0.00,SCT,,0.00,WeatherDisplay:10.37,2013-11-29 22:37:00,
2013-11-29 16:42:00,30.0,17.0,30.23,SSE,157,11.5,11.5,58,0.00,SCT,,0.00,WeatherDisplay:10.37,2013-11-29 22:42:00,
2013-11-29 16:47:00,29.8,16.8,30.23,SE,142,12.7,12.7,58,0.00,CLR,,0.00,WeatherDisplay:10.37,2013-11-29 22:47:00,
2013-11-29 16:52:00,29.7,16.7,30.23,SSE,161,12.7,12.7,58,0.00,CLR,,0.00,WeatherDisplay:10.37,2013-11-29 22:52:00,
2013-11-29 16:57:00,29.5,16.9,30.23,SSE,167,13.0,13.0,59,0.00,CLR,,0.00,WeatherDisplay:10.37,2013-11-29 22:57:00,
2013-11-29 17:02:00,29.4,16.8,30.22,SE,140,6.9,6.9,59,0.00,CLR,,0.00,WeatherDisplay:10.37,2013-11-29 23:02:00,
2013-11-29 17:07:00,29.3,16.7,30.22,South,171,11.5,11.5,59,0.00,CLR,,0.00,WeatherDisplay:10.37,2013-11-29 23:07:00,
2013-11-29 17:12:00,29.3,16.7,30.22,SSE,155,15.0,15.0,59,0.00,CLR,,0.00,WeatherDisplay:10.37,2013-11-29 23:12:00,
2013-11-29 17:17:00,29.4,16.8,30.21,SSE,165,19.6,19.6,59,0.00,CLR,,0.00,WeatherDisplay:10.37,2013-11-29 23:17:00,
2013-11-29 17:22:00,29.4,16.8,30.21,South,171,19.6,19.6,59,0.00,CLR,,0.00,WeatherDisplay:10.37,2013-11-29 23:22:00,
2013-11-29 17:27:00,29.3,16.7,30.21,SSE,159,11.5,11.5,59,0.00,CLR,,0.00,WeatherDisplay:10.37,2013-11-29 23:27:00,
2013-11-29 17:32:00,29.0,16.8,30.21,SE,146,11.5,11.5,60,0.00,CLR,,0.00,WeatherDisplay:10.37,2013-11-29 23:32:00,
2013-11-29 17:37:00,28.8,17.0,30.21,SE,138,11.5,11.5,61,0.00,CLR,,0.00,WeatherDisplay:10.37,2013-11-29 23:37:00,
2013-11-29 17:42:00,28.7,16.9,30.21,SSE,161,11.5,11.5,61,0.00,CLR,,0.00,WeatherDisplay:10.37,2013-11-29 23:42:00,
2013-11-29 17:47:00,28.5,17.1,30.20,SSE,155,13.8,13.8,62,0.00,CLR,,0.00,WeatherDisplay:10.37,2013-11-29 23:47:00,
2013-11-29 17:52:00,28.5,17.1,30.20,SE,138,11.5,11.5,62,0.00,CLR,,0.00,WeatherDisplay:10.37,2013-11-29 23:52:00,
2013-11-29 17:57:00,28.5,17.5,30.20,South,189,13.0,13.0,63,0.00,CLR,,0.00,WeatherDisplay:10.37,2013-11-29 23:57:00,
2013-11-29 18:02:00,28.4,17.4,30.20,SSE,152,12.7,12.7,63,0.00,CLR,,0.00,WeatherDisplay:10.37,2013-11-30 00:02:00,
2013-11-29 18:07:00,28.4,17.8,30.20,SSE,163,8.1,8.1,64,0.00,CLR,,0.00,WeatherDisplay:10.37,2013-11-30 00:07:00,
2013-11-29 18:12:00,28.4,17.8,30.20,SSE,149,8.1,8.1,64,0.00,CLR,,0.00,WeatherDisplay:10.37,2013-11-30 00:12:00,
2013-11-29 18:17:00,28.2,17.6,30.19,SE,144,10.4,10.4,64,0.00,CLR,,0.00,WeatherDisplay:10.37,2013-11-30 00:17:00,
2013-11-29 18:22:00,28.2,17.6,30.19,SE,132,11.5,11.5,64,0.00,CLR,,0.00,WeatherDisplay:10.37,2013-11-30 00:22:00,
2013-11-29 18:27:00,28.2,17.9,30.19,SE,146,11.5,11.5,65,0.00,CLR,,0.00,WeatherDisplay:10.37,2013-11-30 00:27:00,
2013-11-29 18:32:00,28.1,18.2,30.19,SSE,167,19.6,19.6,66,0.00,CLR,,0.00,WeatherDisplay:10.37,2013-11-30 00:32:00,
2013-11-29 18:37:00,28.4,18.5,30.19,South,180,17.3,17.3,66,0.00,CLR,,0.00,WeatherDisplay:10.37,2013-11-30 00:37:00,
2013-11-29 18:42:00,28.4,18.5,30.19,South,171,24.2,24.2,66,0.00,CLR,,0.00,WeatherDisplay:10.37,2013-11-30 00:42:00,
2013-11-29 18:47:00,28.5,18.6,30.19,South,173,18.4,18.4,66,0.00,CLR,,0.00,WeatherDisplay:10.37,2013-11-30 00:47:00,
2013-11-29 18:52:00,28.4,18.5,30.19,SSE,162,13.8,13.8,66,0.00,CLR,,0.00,WeatherDisplay:10.37,2013-11-30 00:52:00,
2013-11-29 18:57:00,28.2,18.3,30.19,South,179,15.0,15.0,66,0.00,CLR,,0.00,WeatherDisplay:10.37,2013-11-30 00:57:00,
2013-11-29 19:02:00,27.9,18.4,30.19,South,176,13.0,13.0,67,0.00,CLR,,0.00,WeatherDisplay:10.37,2013-11-30 01:02:00,
2013-11-29 19:07:00,27.9,18.4,30.19,South,178,11.5,11.5,67,0.00,CLR,,0.00,WeatherDisplay:10.37,2013-11-30 01:07:00,
2013-11-29 19:12:00,27.8,18.6,30.19,SSE,166,17.3,17.3,68,0.00,CLR,,0.00,WeatherDisplay:10.37,2013-11-30 01:12:00,
2013-11-29 19:17:00,27.8,18.6,30.19,SSE,155,16.0,16.0,68,0.00,CLR,,0.00,WeatherDisplay:10.37,2013-11-30 01:17:00,
2013-11-29 19:22:00,27.6,18.4,30.19,South,171,15.0,15.0,68,0.00,CLR,,0.00,WeatherDisplay:10.37,2013-11-30 01:22:00,
2013-11-29 19:27:00,27.5,18.7,30.19,SSE,153,17.3,17.3,69,0.00,CLR,,0.00,WeatherDisplay:10.37,2013-11-30 01:27:00,
2013-11-29 19:32:00,27.5,18.7,30.18,SSE,163,12.7,12.7,69,0.00,CLR,,0.00,WeatherDisplay:10.37,2013-11-30 01:32:00,
2013-11-29 19:37:00,27.3,18.8,30.18,SSE,165,10.4,10.4,70,0.00,CLR,,0.00,WeatherDisplay:10.37,2013-11-30 01:37:00,
2013-11-29 19:42:00,27.3,18.8,30.18,SSE,154,12.7,12.7,70,0.00,CLR,,0.00,WeatherDisplay:10.37,2013-11-30 01:42:00,
2013-11-29 19:47:00,27.2,18.7,30.19,SSE,155,10.0,10.0,70,0.00,CLR,,0.00,WeatherDisplay:10.37,2013-11-30 01:47:00,
2013-11-29 19:52:00,27.2,18.7,30.19,SSE,162,10.4,10.4,70,0.00,CLR,,0.00,WeatherDisplay:10.37,2013-11-30 01:52:00,
2013-11-29 19:57:00,27.2,18.7,30.19,SSE,159,6.9,6.9,70,0.00,CLR,,0.00,WeatherDisplay:10.37,2013-11-30 01:57:00,
2013-11-29 20:02:00,27.3,19.1,30.18,SSE,165,9.2,9.2,71,0.00,SCT,,0.00,WeatherDisplay:10.37,2013-11-30 02:02:00,
2013-11-29 20:07:00,27.5,19.3,30.18,SSE,168,10.4,10.4,71,0.00,SCT,,0.00,WeatherDisplay:10.37,2013-11-30 02:07:00,
2013-11-29 20:12:00,27.6,19.1,30.18,SSE,163,9.2,9.2,70,0.00,SCT,,0.00,WeatherDisplay:10.37,2013-11-30 02:12:00,
2013-11-29 20:17:00,27.9,19.4,30.17,SSE,155,9.2,9.2,70,0.00,SCT,,0.00,WeatherDisplay:10.37,2013-11-30 02:17:00,
2013-11-29 20:22:00,28.1,19.6,30.17,SSE,150,11.5,11.5,70,0.00,SCT,,0.00,WeatherDisplay:10.37,2013-11-30 02:22:00,
2013-11-29 20:27:00,28.2,19.7,30.17,South,171,11.5,11.5,70,0.00,SCT,,0.00,WeatherDisplay:10.37,2013-11-30 02:27:00,
2013-11-29 20:32:00,28.5,19.6,30.17,SE,136,16.1,16.1,69,0.00,OVC,,0.00,WeatherDisplay:10.37,2013-11-30 02:32:00,
2013-11-29 20:37:00,28.7,19.8,30.17,SSE,153,11.5,11.5,69,0.00,OVC,,0.00,WeatherDisplay:10.37,2013-11-30 02:37:00,
2013-11-29 20:42:00,28.8,19.9,30.17,SSE,155,12.7,12.7,69,0.00,OVC,,0.00,WeatherDisplay:10.37,2013-11-30 02:42:00,
2013-11-29 20:47:00,29.0,19.8,30.17,SSE,154,11.5,11.5,68,0.00,OVC,,0.00,WeatherDisplay:10.37,2013-11-30 02:47:00,
2013-11-29 20:52:00,29.1,19.8,30.17,South,182,11.5,11.5,68,0.00,OVC,,0.00,WeatherDisplay:10.37,2013-11-30 02:52:00,
2013-11-29 20:57:00,29.1,19.8,30.17,SSE,156,6.9,6.9,68,0.00,OVC,,0.00,WeatherDisplay:10.37,2013-11-30 02:57:00,
2013-11-29 21:02:00,29.1,19.8,30.16,SSE,153,9.2,9.2,68,0.00,OVC,,0.00,WeatherDisplay:10.37,2013-11-30 03:02:00,
2013-11-29 21:07:00,29.0,19.8,30.16,South,175,11.0,11.0,68,0.00,OVC,,0.00,WeatherDisplay:10.37,2013-11-30 03:07:00,
2013-11-29 21:12:00,29.0,19.8,30.16,South,170,11.5,11.5,68,0.00,OVC,,0.00,WeatherDisplay:10.37,2013-11-30 03:12:00,
2013-11-29 21:17:00,28.8,19.6,30.16,South,174,6.9,6.9,68,0.00,OVC,,0.00,WeatherDisplay:10.37,2013-11-30 03:17:00,
2013-11-29 21:22:00,28.7,19.5,30.16,SSE,152,9.2,9.2,68,0.00,OVC,,0.00,WeatherDisplay:10.37,2013-11-30 03:22:00,
2013-11-29 21:27:00,28.7,19.8,30.16,SSE,157,10.4,10.4,69,0.00,OVC,,0.00,WeatherDisplay:10.37,2013-11-30 03:27:00,
2013-11-29 21:32:00,28.5,19.6,30.16,South,169,11.5,11.5,69,0.00,BKN,,0.00,WeatherDisplay:10.37,2013-11-30 03:32:00,
2013-11-29 21:37:00,28.5,19.6,30.16,South,178,10.4,10.4,69,0.00,BKN,,0.00,WeatherDisplay:10.37,2013-11-30 03:37:00,
2013-11-29 21:42:00,28.5,19.6,30.16,South,184,11.5,11.5,69,0.00,BKN,,0.00,WeatherDisplay:10.37,2013-11-30 03:42:00,
2013-11-29 21:47:00,28.7,19.8,30.15,SSE,164,10.4,10.4,69,0.00,SCT,,0.00,WeatherDisplay:10.37,2013-11-30 03:47:00,
2013-11-29 21:52:00,28.7,19.8,30.15,SE,138,6.9,6.9,69,0.00,SCT,,0.00,WeatherDisplay:10.37,2013-11-30 03:52:00,
2013-11-29 21:57:00,29.1,19.8,30.15,SSE,153,9.2,9.2,68,0.00,SCT,,0.00,WeatherDisplay:10.37,2013-11-30 03:57:00,
2013-11-29 22:02:00,29.3,19.7,30.15,South,171,11.5,11.5,67,0.00,BKN,,0.00,WeatherDisplay:10.37,2013-11-30 04:02:00,
2013-11-29 22:07:00,29.4,19.8,30.15,SSE,161,12.7,12.7,67,0.00,BKN,,0.00,WeatherDisplay:10.37,2013-11-30 04:07:00,
2013-11-29 22:12:00,29.5,19.9,30.15,SE,144,6.9,6.9,67,0.00,BKN,,0.00,WeatherDisplay:10.37,2013-11-30 04:12:00,
2013-11-29 22:17:00,29.5,19.9,30.15,SSE,159,11.5,11.5,67,0.00,BKN,,0.00,WeatherDisplay:10.37,2013-11-30 04:17:00,
2013-11-29 22:22:00,29.5,19.9,30.15,South,177,10.4,10.4,67,0.00,BKN,,0.00,WeatherDisplay:10.37,2013-11-30 04:22:00,
2013-11-29 22:27:00,29.5,19.9,30.15,SSE,148,10.4,10.4,67,0.00,BKN,,0.00,WeatherDisplay:10.37,2013-11-30 04:27:00,
2013-11-29 22:32:00,29.5,19.9,30.14,SSE,148,11.5,11.5,67,0.00,OVC,,0.00,WeatherDisplay:10.37,2013-11-30 04:32:00,
2013-11-29 22:37:00,29.5,19.9,30.14,South,173,14.0,14.0,67,0.00,OVC,,0.00,WeatherDisplay:10.37,2013-11-30 04:37:00,
2013-11-29 22:42:00,29.5,19.9,30.14,SSE,154,6.9,6.9,67,0.00,OVC,,0.00,WeatherDisplay:10.37,2013-11-30 04:42:00,
2013-11-29 22:47:00,29.5,19.9,30.13,SSE,164,11.5,11.5,67,0.00,OVC,,0.00,WeatherDisplay:10.37,2013-11-30 04:47:00,
2013-11-29 22:52:00,29.5,19.9,30.13,SSE,159,9.2,9.2,67,0.00,OVC,,0.00,WeatherDisplay:10.37,2013-11-30 04:52:00,
2013-11-29 22:57:00,29.5,19.9,30.13,South,183,13.8,13.8,67,0.00,OVC,,0.00,WeatherDisplay:10.37,2013-11-30 04:57:00,
2013-11-29 23:01:00,29.4,19.8,30.13,SSE,148,8.1,8.1,67,0.00,OVC,,0.00,WeatherDisplay:10.37,2013-11-30 05:01:00,
2013-11-29 23:06:00,29.3,19.7,30.13,SSE,161,11.5,11.5,67,0.00,OVC,,0.00,WeatherDisplay:10.37,2013-11-30 05:06:00,
2013-11-29 23:11:00,29.1,19.5,30.13,SSE,156,9.2,9.2,67,0.00,OVC,,0.00,WeatherDisplay:10.37,2013-11-30 05:11:00,
2013-11-29 23:16:00,29.0,19.8,30.13,SSE,163,12.0,12.0,68,0.00,OVC,,0.00,WeatherDisplay:10.37,2013-11-30 05:16:00,
2013-11-29 23:21:00,29.0,19.8,30.13,South,184,10.4,10.4,68,0.00,OVC,,0.00,WeatherDisplay:10.37,2013-11-30 05:21:00,
2013-11-29 23:26:00,29.0,19.8,30.13,SSE,157,11.5,11.5,68,0.00,OVC,,0.00,WeatherDisplay:10.37,2013-11-30 05:26:00,
2013-11-29 23:31:00,29.0,19.8,30.12,SSE,161,10.4,10.4,68,0.00,CLR,,0.00,WeatherDisplay:10.37,2013-11-30 05:31:00,
2013-11-29 23:36:00,28.8,19.9,30.12,SSE,158,11.5,11.5,69,0.00,SCT,,0.00,WeatherDisplay:10.37,2013-11-30 05:36:00,
2013-11-29 23:41:00,28.7,19.8,30.12,SSE,163,9.2,9.2,69,0.00,SCT,,0.00,WeatherDisplay:10.37,2013-11-30 05:41:00,
2013-11-29 23:46:00,28.7,19.8,30.12,SSE,157,9.2,9.2,69,0.00,CLR,,0.00,WeatherDisplay:10.37,2013-11-30 05:46:00,
2013-11-29 23:51:00,29.0,20.1,30.12,SSE,157,10.0,10.0,69,0.00,CLR,,0.00,WeatherDisplay:10.37,2013-11-30 05:51:00,
2013-11-29 23:56:00,29.0,20.1,30.12,SSE,148,6.9,6.9,69,0.00,CLR,,0.00,WeatherDisplay:10.37,2013-11-30 05:56:00,